sensor_id;sensor_type;location;lat;lon;timestamp;P1;durP1;ratioP1;P2;durP2;ratioP2
73296;SDS011;61524;50.938;11.396;2022-07-23T00:00:55;8.90;;;4.75;;
73296;SDS011;61524;50.938;11.396;2022-07-23T00:03:21;8.32;;;4.13;;
73296;SDS011;61524;50.938;11.396;2022-07-23T00:05:46;7.07;;;4.40;;
73296;SDS011;61524;50.938;11.396;2022-07-23T00:08:12;7.93;;;4.05;;
73296;SDS011;61524;50.938;11.396;2022-07-23T00:10:37;6.22;;;4.28;;
73296;SDS011;61524;50.938;11.396;2022-07-23T00:13:03;8.60;;;4.78;;
73296;SDS011;61524;50.938;11.396;2022-07-23T00:15:29;5.97;;;4.93;;
73296;SDS011;61524;50.938;11.396;2022-07-23T00:17:54;7.32;;;4.75;;
73296;SDS011;61524;50.938;11.396;2022-07-23T00:20:20;5.35;;;3.80;;
73296;SDS011;61524;50.938;11.396;2022-07-23T00:22:46;5.65;;;4.22;;
73296;SDS011;61524;50.938;11.396;2022-07-23T00:25:13;7.95;;;4.30;;
73296;SDS011;61524;50.938;11.396;2022-07-23T00:27:38;9.07;;;4.60;;
73296;SDS011;61524;50.938;11.396;2022-07-23T00:30:04;7.50;;;4.50;;
73296;SDS011;61524;50.938;11.396;2022-07-23T00:32:30;7.22;;;4.55;;
73296;SDS011;61524;50.938;11.396;2022-07-23T00:34:56;5.45;;;3.80;;
73296;SDS011;61524;50.938;11.396;2022-07-23T00:37:21;7.07;;;4.45;;
73296;SDS011;61524;50.938;11.396;2022-07-23T00:39:46;6.80;;;4.43;;
73296;SDS011;61524;50.938;11.396;2022-07-23T00:42:12;8.15;;;5.25;;
73296;SDS011;61524;50.938;11.396;2022-07-23T00:44:37;6.68;;;4.13;;
73296;SDS011;61524;50.938;11.396;2022-07-23T00:47:03;7.32;;;5.00;;
73296;SDS011;61524;50.938;11.396;2022-07-23T00:49:30;8.57;;;4.75;;
73296;SDS011;61524;50.938;11.396;2022-07-23T00:51:57;14.23;;;4.95;;
73296;SDS011;61524;50.938;11.396;2022-07-23T00:54:26;10.95;;;6.57;;
73296;SDS011;61524;50.938;11.396;2022-07-23T00:56:52;7.53;;;5.57;;
73296;SDS011;61524;50.938;11.396;2022-07-23T00:59:17;7.35;;;4.88;;
73296;SDS011;61524;50.938;11.396;2022-07-23T01:01:43;9.15;;;5.68;;
73296;SDS011;61524;50.938;11.396;2022-07-23T01:04:10;6.65;;;5.03;;
73296;SDS011;61524;50.938;11.396;2022-07-23T01:06:36;7.47;;;5.38;;
73296;SDS011;61524;50.938;11.396;2022-07-23T01:09:03;9.35;;;5.70;;
73296;SDS011;61524;50.938;11.396;2022-07-23T01:11:29;8.07;;;4.80;;
73296;SDS011;61524;50.938;11.396;2022-07-23T01:13:56;7.43;;;4.28;;
73296;SDS011;61524;50.938;11.396;2022-07-23T01:16:21;8.32;;;4.60;;
73296;SDS011;61524;50.938;11.396;2022-07-23T01:18:47;7.22;;;4.60;;
73296;SDS011;61524;50.938;11.396;2022-07-23T01:21:13;8.60;;;5.10;;
73296;SDS011;61524;50.938;11.396;2022-07-23T01:23:39;8.43;;;5.40;;
73296;SDS011;61524;50.938;11.396;2022-07-23T01:26:05;6.85;;;5.07;;
73296;SDS011;61524;50.938;11.396;2022-07-23T01:28:30;7.80;;;5.13;;
73296;SDS011;61524;50.938;11.396;2022-07-23T01:30:56;9.18;;;6.13;;
73296;SDS011;61524;50.938;11.396;2022-07-23T01:33:21;8.10;;;5.75;;
73296;SDS011;61524;50.938;11.396;2022-07-23T01:35:47;8.75;;;6.18;;
73296;SDS011;61524;50.938;11.396;2022-07-23T01:38:12;9.13;;;5.97;;
73296;SDS011;61524;50.938;11.396;2022-07-23T01:40:38;9.20;;;6.30;;
73296;SDS011;61524;50.938;11.396;2022-07-23T01:43:04;10.75;;;6.38;;
73296;SDS011;61524;50.938;11.396;2022-07-23T01:47:55;8.18;;;5.72;;
73296;SDS011;61524;50.938;11.396;2022-07-23T01:50:20;10.45;;;6.63;;
73296;SDS011;61524;50.938;11.396;2022-07-23T01:52:46;10.32;;;7.05;;
73296;SDS011;61524;50.938;11.396;2022-07-23T01:55:11;9.35;;;6.45;;
73296;SDS011;61524;50.938;11.396;2022-07-23T01:57:37;11.68;;;6.28;;
73296;SDS011;61524;50.938;11.396;2022-07-23T02:00:03;11.02;;;6.90;;
73296;SDS011;61524;50.938;11.396;2022-07-23T02:02:29;9.35;;;6.65;;
73296;SDS011;61524;50.938;11.396;2022-07-23T02:04:54;14.20;;;7.20;;
73296;SDS011;61524;50.938;11.396;2022-07-23T02:07:19;9.98;;;6.75;;
73296;SDS011;61524;50.938;11.396;2022-07-23T02:09:45;9.00;;;6.28;;
73296;SDS011;61524;50.938;11.396;2022-07-23T02:12:10;9.18;;;7.07;;
73296;SDS011;61524;50.938;11.396;2022-07-23T02:14:36;11.70;;;6.70;;
73296;SDS011;61524;50.938;11.396;2022-07-23T02:17:01;12.98;;;6.65;;
73296;SDS011;61524;50.938;11.396;2022-07-23T02:19:27;10.32;;;6.63;;
73296;SDS011;61524;50.938;11.396;2022-07-23T02:21:53;10.63;;;6.60;;
73296;SDS011;61524;50.938;11.396;2022-07-23T02:24:19;9.10;;;7.03;;
73296;SDS011;61524;50.938;11.396;2022-07-23T02:26:45;9.90;;;6.10;;
73296;SDS011;61524;50.938;11.396;2022-07-23T02:29:10;12.65;;;6.38;;
73296;SDS011;61524;50.938;11.396;2022-07-23T02:31:36;8.73;;;6.43;;
73296;SDS011;61524;50.938;11.396;2022-07-23T02:34:02;9.10;;;6.47;;
73296;SDS011;61524;50.938;11.396;2022-07-23T02:36:27;9.45;;;6.40;;
73296;SDS011;61524;50.938;11.396;2022-07-23T02:38:53;9.00;;;5.97;;
73296;SDS011;61524;50.938;11.396;2022-07-23T02:41:19;11.05;;;6.55;;
73296;SDS011;61524;50.938;11.396;2022-07-23T02:43:44;8.95;;;5.75;;
73296;SDS011;61524;50.938;11.396;2022-07-23T02:46:10;9.65;;;6.28;;
73296;SDS011;61524;50.938;11.396;2022-07-23T02:48:35;11.98;;;6.82;;
73296;SDS011;61524;50.938;11.396;2022-07-23T02:51:01;10.38;;;6.22;;
73296;SDS011;61524;50.938;11.396;2022-07-23T02:53:26;10.00;;;6.80;;
73296;SDS011;61524;50.938;11.396;2022-07-23T02:55:52;9.93;;;6.40;;
73296;SDS011;61524;50.938;11.396;2022-07-23T02:58:17;10.85;;;5.90;;
73296;SDS011;61524;50.938;11.396;2022-07-23T03:00:43;9.77;;;6.45;;
73296;SDS011;61524;50.938;11.396;2022-07-23T03:03:08;11.20;;;6.57;;
73296;SDS011;61524;50.938;11.396;2022-07-23T03:05:34;10.90;;;7.15;;
73296;SDS011;61524;50.938;11.396;2022-07-23T03:07:59;10.23;;;7.10;;
73296;SDS011;61524;50.938;11.396;2022-07-23T03:10:25;15.10;;;8.35;;
73296;SDS011;61524;50.938;11.396;2022-07-23T03:12:50;12.88;;;8.20;;
73296;SDS011;61524;50.938;11.396;2022-07-23T03:15:16;12.80;;;8.27;;
73296;SDS011;61524;50.938;11.396;2022-07-23T03:17:41;11.68;;;8.95;;
73296;SDS011;61524;50.938;11.396;2022-07-23T03:20:07;15.13;;;8.82;;
73296;SDS011;61524;50.938;11.396;2022-07-23T03:22:33;16.67;;;12.13;;
73296;SDS011;61524;50.938;11.396;2022-07-23T03:24:58;25.75;;;13.63;;
73296;SDS011;61524;50.938;11.396;2022-07-23T03:27:24;25.42;;;13.98;;
73296;SDS011;61524;50.938;11.396;2022-07-23T03:29:52;21.35;;;13.32;;
73296;SDS011;61524;50.938;11.396;2022-07-23T03:32:18;24.42;;;14.98;;
73296;SDS011;61524;50.938;11.396;2022-07-23T03:34:44;23.92;;;14.40;;
73296;SDS011;61524;50.938;11.396;2022-07-23T03:37:10;28.77;;;16.38;;
73296;SDS011;61524;50.938;11.396;2022-07-23T03:39:36;26.33;;;15.93;;
73296;SDS011;61524;50.938;11.396;2022-07-23T03:42:01;29.08;;;15.13;;
73296;SDS011;61524;50.938;11.396;2022-07-23T03:44:27;30.20;;;17.30;;
73296;SDS011;61524;50.938;11.396;2022-07-23T03:46:53;27.88;;;18.45;;
73296;SDS011;61524;50.938;11.396;2022-07-23T03:49:18;37.88;;;19.25;;
73296;SDS011;61524;50.938;11.396;2022-07-23T03:51:43;33.72;;;18.77;;
73296;SDS011;61524;50.938;11.396;2022-07-23T03:54:09;27.55;;;17.40;;
73296;SDS011;61524;50.938;11.396;2022-07-23T03:56:34;26.15;;;16.10;;
73296;SDS011;61524;50.938;11.396;2022-07-23T03:59:00;23.67;;;14.65;;
73296;SDS011;61524;50.938;11.396;2022-07-23T04:01:26;25.75;;;16.85;;
73296;SDS011;61524;50.938;11.396;2022-07-23T04:03:51;26.58;;;16.58;;
73296;SDS011;61524;50.938;11.396;2022-07-23T04:06:17;30.55;;;17.10;;
73296;SDS011;61524;50.938;11.396;2022-07-23T04:08:43;28.02;;;16.52;;
73296;SDS011;61524;50.938;11.396;2022-07-23T04:11:08;24.23;;;16.17;;
73296;SDS011;61524;50.938;11.396;2022-07-23T04:13:34;27.77;;;16.10;;
73296;SDS011;61524;50.938;11.396;2022-07-23T04:15:59;24.27;;;14.75;;
73296;SDS011;61524;50.938;11.396;2022-07-23T04:18:25;22.30;;;12.80;;
73296;SDS011;61524;50.938;11.396;2022-07-23T04:20:51;23.88;;;14.05;;
73296;SDS011;61524;50.938;11.396;2022-07-23T04:23:17;22.92;;;14.45;;
73296;SDS011;61524;50.938;11.396;2022-07-23T04:25:43;24.10;;;15.55;;
73296;SDS011;61524;50.938;11.396;2022-07-23T04:28:08;29.67;;;17.50;;
73296;SDS011;61524;50.938;11.396;2022-07-23T04:30:34;26.15;;;16.58;;
73296;SDS011;61524;50.938;11.396;2022-07-23T04:32:59;27.05;;;15.40;;
73296;SDS011;61524;50.938;11.396;2022-07-23T04:35:25;25.23;;;13.55;;
73296;SDS011;61524;50.938;11.396;2022-07-23T04:37:50;24.52;;;15.75;;
73296;SDS011;61524;50.938;11.396;2022-07-23T04:40:16;29.15;;;16.77;;
73296;SDS011;61524;50.938;11.396;2022-07-23T04:42:41;26.60;;;17.05;;
73296;SDS011;61524;50.938;11.396;2022-07-23T04:45:07;29.20;;;17.98;;
73296;SDS011;61524;50.938;11.396;2022-07-23T04:47:33;28.73;;;17.80;;
73296;SDS011;61524;50.938;11.396;2022-07-23T04:49:58;26.95;;;16.15;;
73296;SDS011;61524;50.938;11.396;2022-07-23T04:52:24;28.92;;;17.25;;
73296;SDS011;61524;50.938;11.396;2022-07-23T04:54:50;33.13;;;17.40;;
73296;SDS011;61524;50.938;11.396;2022-07-23T04:57:15;36.53;;;19.98;;
73296;SDS011;61524;50.938;11.396;2022-07-23T04:59:41;33.58;;;18.75;;
73296;SDS011;61524;50.938;11.396;2022-07-23T05:02:06;29.17;;;17.98;;
73296;SDS011;61524;50.938;11.396;2022-07-23T05:04:32;30.30;;;17.35;;
73296;SDS011;61524;50.938;11.396;2022-07-23T05:06:58;31.00;;;17.42;;
73296;SDS011;61524;50.938;11.396;2022-07-23T05:09:24;29.92;;;17.13;;
73296;SDS011;61524;50.938;11.396;2022-07-23T05:11:50;29.83;;;16.17;;
73296;SDS011;61524;50.938;11.396;2022-07-23T05:14:16;35.72;;;20.20;;
73296;SDS011;61524;50.938;11.396;2022-07-23T05:16:41;38.25;;;19.73;;
73296;SDS011;61524;50.938;11.396;2022-07-23T05:19:07;39.63;;;21.13;;
73296;SDS011;61524;50.938;11.396;2022-07-23T05:21:32;29.95;;;16.63;;
73296;SDS011;61524;50.938;11.396;2022-07-23T05:23:58;30.17;;;18.05;;
73296;SDS011;61524;50.938;11.396;2022-07-23T05:26:24;30.33;;;16.42;;
73296;SDS011;61524;50.938;11.396;2022-07-23T05:28:50;22.52;;;14.80;;
73296;SDS011;61524;50.938;11.396;2022-07-23T05:31:15;25.75;;;16.63;;
73296;SDS011;61524;50.938;11.396;2022-07-23T05:33:41;32.50;;;17.13;;
73296;SDS011;61524;50.938;11.396;2022-07-23T05:36:07;24.88;;;16.30;;
73296;SDS011;61524;50.938;11.396;2022-07-23T05:38:32;26.67;;;15.27;;
73296;SDS011;61524;50.938;11.396;2022-07-23T05:40:58;27.50;;;16.38;;
73296;SDS011;61524;50.938;11.396;2022-07-23T05:43:23;29.75;;;18.52;;
73296;SDS011;61524;50.938;11.396;2022-07-23T05:45:49;26.20;;;16.77;;
73296;SDS011;61524;50.938;11.396;2022-07-23T05:48:15;25.85;;;14.60;;
73296;SDS011;61524;50.938;11.396;2022-07-23T05:50:40;25.30;;;15.20;;
73296;SDS011;61524;50.938;11.396;2022-07-23T05:53:06;30.27;;;17.35;;
73296;SDS011;61524;50.938;11.396;2022-07-23T05:55:31;22.13;;;13.43;;
73296;SDS011;61524;50.938;11.396;2022-07-23T05:57:57;23.23;;;15.93;;
73296;SDS011;61524;50.938;11.396;2022-07-23T06:00:23;25.25;;;16.77;;
73296;SDS011;61524;50.938;11.396;2022-07-23T06:02:49;24.02;;;16.42;;
73296;SDS011;61524;50.938;11.396;2022-07-23T06:05:15;22.73;;;14.52;;
73296;SDS011;61524;50.938;11.396;2022-07-23T06:07:40;20.48;;;14.13;;
73296;SDS011;61524;50.938;11.396;2022-07-23T06:10:06;21.35;;;14.40;;
73296;SDS011;61524;50.938;11.396;2022-07-23T06:12:32;19.02;;;12.40;;
73296;SDS011;61524;50.938;11.396;2022-07-23T06:14:58;17.45;;;13.23;;
73296;SDS011;61524;50.938;11.396;2022-07-23T06:17:23;21.70;;;14.07;;
73296;SDS011;61524;50.938;11.396;2022-07-23T06:19:49;20.70;;;14.80;;
73296;SDS011;61524;50.938;11.396;2022-07-23T06:22:15;21.63;;;13.45;;
73296;SDS011;61524;50.938;11.396;2022-07-23T06:24:41;23.77;;;15.10;;
73296;SDS011;61524;50.938;11.396;2022-07-23T06:27:06;22.33;;;14.85;;
73296;SDS011;61524;50.938;11.396;2022-07-23T06:29:32;25.40;;;16.52;;
73296;SDS011;61524;50.938;11.396;2022-07-23T06:31:57;20.55;;;13.45;;
73296;SDS011;61524;50.938;11.396;2022-07-23T06:34:23;23.67;;;15.27;;
73296;SDS011;61524;50.938;11.396;2022-07-23T06:36:48;16.83;;;11.55;;
73296;SDS011;61524;50.938;11.396;2022-07-23T06:39:14;18.88;;;12.32;;
73296;SDS011;61524;50.938;11.396;2022-07-23T06:41:39;16.70;;;12.05;;
73296;SDS011;61524;50.938;11.396;2022-07-23T06:44:05;18.77;;;12.90;;
73296;SDS011;61524;50.938;11.396;2022-07-23T06:46:30;20.23;;;12.25;;
73296;SDS011;61524;50.938;11.396;2022-07-23T06:48:56;17.50;;;12.10;;
73296;SDS011;61524;50.938;11.396;2022-07-23T06:51:21;19.42;;;12.45;;
73296;SDS011;61524;50.938;11.396;2022-07-23T06:53:47;20.23;;;13.57;;
73296;SDS011;61524;50.938;11.396;2022-07-23T06:56:12;17.10;;;11.90;;
73296;SDS011;61524;50.938;11.396;2022-07-23T06:58:38;19.58;;;12.88;;
73296;SDS011;61524;50.938;11.396;2022-07-23T07:01:03;19.83;;;13.77;;
73296;SDS011;61524;50.938;11.396;2022-07-23T07:03:28;19.05;;;13.77;;
73296;SDS011;61524;50.938;11.396;2022-07-23T07:05:54;17.63;;;12.30;;
73296;SDS011;61524;50.938;11.396;2022-07-23T07:08:22;20.27;;;12.85;;
73296;SDS011;61524;50.938;11.396;2022-07-23T07:10:48;18.38;;;13.02;;
73296;SDS011;61524;50.938;11.396;2022-07-23T07:13:13;20.38;;;12.77;;
73296;SDS011;61524;50.938;11.396;2022-07-23T07:15:39;20.83;;;13.05;;
73296;SDS011;61524;50.938;11.396;2022-07-23T07:18:04;19.25;;;13.13;;
73296;SDS011;61524;50.938;11.396;2022-07-23T07:20:29;19.92;;;12.98;;
73296;SDS011;61524;50.938;11.396;2022-07-23T07:22:55;18.55;;;12.73;;
73296;SDS011;61524;50.938;11.396;2022-07-23T07:25:20;16.50;;;12.38;;
73296;SDS011;61524;50.938;11.396;2022-07-23T07:27:46;19.27;;;13.50;;
73296;SDS011;61524;50.938;11.396;2022-07-23T07:30:12;19.63;;;12.15;;
73296;SDS011;61524;50.938;11.396;2022-07-23T07:32:38;19.48;;;12.27;;
73296;SDS011;61524;50.938;11.396;2022-07-23T07:35:04;17.63;;;12.68;;
73296;SDS011;61524;50.938;11.396;2022-07-23T07:37:30;18.98;;;12.68;;
73296;SDS011;61524;50.938;11.396;2022-07-23T07:39:55;19.30;;;12.65;;
73296;SDS011;61524;50.938;11.396;2022-07-23T07:42:21;18.63;;;13.45;;
73296;SDS011;61524;50.938;11.396;2022-07-23T07:44:46;22.90;;;13.45;;
73296;SDS011;61524;50.938;11.396;2022-07-23T07:47:12;19.48;;;13.27;;
73296;SDS011;61524;50.938;11.396;2022-07-23T07:49:39;19.80;;;13.40;;
73296;SDS011;61524;50.938;11.396;2022-07-23T07:52:04;16.83;;;11.55;;
73296;SDS011;61524;50.938;11.396;2022-07-23T07:56:57;16.77;;;12.30;;
73296;SDS011;61524;50.938;11.396;2022-07-23T07:59:22;17.08;;;13.60;;
73296;SDS011;61524;50.938;11.396;2022-07-23T08:01:48;18.15;;;13.13;;
73296;SDS011;61524;50.938;11.396;2022-07-23T08:04:13;18.15;;;14.65;;
73296;SDS011;61524;50.938;11.396;2022-07-23T08:06:39;18.88;;;14.05;;
73296;SDS011;61524;50.938;11.396;2022-07-23T08:09:04;21.50;;;15.77;;
73296;SDS011;61524;50.938;11.396;2022-07-23T08:11:30;21.25;;;15.50;;
73296;SDS011;61524;50.938;11.396;2022-07-23T08:13:55;19.00;;;15.75;;
73296;SDS011;61524;50.938;11.396;2022-07-23T08:16:21;19.95;;;14.43;;
73296;SDS011;61524;50.938;11.396;2022-07-23T08:18:46;19.45;;;14.70;;
73296;SDS011;61524;50.938;11.396;2022-07-23T08:21:12;22.05;;;17.52;;
73296;SDS011;61524;50.938;11.396;2022-07-23T08:23:37;20.33;;;15.18;;
73296;SDS011;61524;50.938;11.396;2022-07-23T08:26:03;19.02;;;15.82;;
73296;SDS011;61524;50.938;11.396;2022-07-23T08:28:29;22.90;;;15.95;;
73296;SDS011;61524;50.938;11.396;2022-07-23T08:30:57;19.70;;;14.48;;
73296;SDS011;61524;50.938;11.396;2022-07-23T08:33:23;19.52;;;16.30;;
73296;SDS011;61524;50.938;11.396;2022-07-23T08:35:49;18.60;;;15.75;;
73296;SDS011;61524;50.938;11.396;2022-07-23T08:38:17;19.98;;;15.77;;
73296;SDS011;61524;50.938;11.396;2022-07-23T08:40:46;21.10;;;15.60;;
73296;SDS011;61524;50.938;11.396;2022-07-23T08:43:14;18.23;;;14.82;;
73296;SDS011;61524;50.938;11.396;2022-07-23T08:45:50;20.35;;;15.57;;
73296;SDS011;61524;50.938;11.396;2022-07-23T08:48:22;18.15;;;14.23;;
73296;SDS011;61524;50.938;11.396;2022-07-23T08:50:53;21.65;;;15.13;;
73296;SDS011;61524;50.938;11.396;2022-07-23T08:53:23;21.80;;;15.48;;
73296;SDS011;61524;50.938;11.396;2022-07-23T08:58:15;20.30;;;15.07;;
73296;SDS011;61524;50.938;11.396;2022-07-23T09:00:42;20.90;;;13.85;;
73296;SDS011;61524;50.938;11.396;2022-07-23T09:03:11;16.52;;;12.77;;
73296;SDS011;61524;50.938;11.396;2022-07-23T09:05:41;15.18;;;13.05;;
73296;SDS011;61524;50.938;11.396;2022-07-23T09:08:10;17.60;;;11.77;;
73296;SDS011;61524;50.938;11.396;2022-07-23T09:18:43;17.15;;;12.40;;
73296;SDS011;61524;50.938;11.396;2022-07-23T09:23:41;16.13;;;11.52;;
73296;SDS011;61524;50.938;11.396;2022-07-23T09:28:56;16.80;;;12.95;;
73296;SDS011;61524;50.938;11.396;2022-07-23T09:34:20;16.67;;;13.30;;
73296;SDS011;61524;50.938;11.396;2022-07-23T09:36:47;16.77;;;13.07;;
73296;SDS011;61524;50.938;11.396;2022-07-23T09:39:15;16.70;;;12.55;;
73296;SDS011;61524;50.938;11.396;2022-07-23T09:41:47;17.23;;;13.07;;
73296;SDS011;61524;50.938;11.396;2022-07-23T09:46:41;16.92;;;12.95;;
73296;SDS011;61524;50.938;11.396;2022-07-23T09:51:44;20.75;;;15.00;;
73296;SDS011;61524;50.938;11.396;2022-07-23T09:54:44;18.25;;;14.27;;
73296;SDS011;61524;50.938;11.396;2022-07-23T09:57:05;18.25;;;13.35;;
73296;SDS011;61524;50.938;11.396;2022-07-23T09:59:36;19.98;;;14.10;;
73296;SDS011;61524;50.938;11.396;2022-07-23T10:02:04;18.90;;;14.63;;
73296;SDS011;61524;50.938;11.396;2022-07-23T10:04:31;21.48;;;14.65;;
73296;SDS011;61524;50.938;11.396;2022-07-23T10:07:01;20.33;;;15.45;;
73296;SDS011;61524;50.938;11.396;2022-07-23T10:09:30;23.23;;;15.90;;
73296;SDS011;61524;50.938;11.396;2022-07-23T10:15:03;17.30;;;14.13;;
73296;SDS011;61524;50.938;11.396;2022-07-23T10:17:31;19.85;;;14.85;;
73296;SDS011;61524;50.938;11.396;2022-07-23T10:19:57;22.33;;;16.63;;
73296;SDS011;61524;50.938;11.396;2022-07-23T10:22:23;21.52;;;16.40;;
73296;SDS011;61524;50.938;11.396;2022-07-23T10:36:12;19.00;;;15.05;;
73296;SDS011;61524;50.938;11.396;2022-07-23T10:41:47;21.15;;;15.77;;
73296;SDS011;61524;50.938;11.396;2022-07-23T10:44:14;21.42;;;16.52;;
73296;SDS011;61524;50.938;11.396;2022-07-23T10:46:58;20.98;;;16.20;;
73296;SDS011;61524;50.938;11.396;2022-07-23T10:49:44;20.95;;;16.83;;
73296;SDS011;61524;50.938;11.396;2022-07-23T10:52:20;21.08;;;17.25;;
73296;SDS011;61524;50.938;11.396;2022-07-23T10:54:51;20.50;;;15.85;;
73296;SDS011;61524;50.938;11.396;2022-07-23T10:57:26;19.65;;;15.25;;
73296;SDS011;61524;50.938;11.396;2022-07-23T11:02:28;21.23;;;15.63;;
73296;SDS011;61524;50.938;11.396;2022-07-23T11:04:58;21.27;;;16.65;;
73296;SDS011;61524;50.938;11.396;2022-07-23T11:07:26;21.35;;;15.38;;
73296;SDS011;61524;50.938;11.396;2022-07-23T11:09:51;19.85;;;15.60;;
73296;SDS011;61524;50.938;11.396;2022-07-23T11:17:39;20.75;;;16.52;;
73296;SDS011;61524;50.938;11.396;2022-07-23T11:20:27;22.67;;;17.35;;
73296;SDS011;61524;50.938;11.396;2022-07-23T11:22:56;23.25;;;17.88;;
73296;SDS011;61524;50.938;11.396;2022-07-23T11:27:55;20.60;;;16.98;;
73296;SDS011;61524;50.938;11.396;2022-07-23T11:35:32;20.48;;;16.85;;
73296;SDS011;61524;50.938;11.396;2022-07-23T11:40:40;23.17;;;16.95;;
73296;SDS011;61524;50.938;11.396;2022-07-23T11:43:08;21.63;;;17.50;;
73296;SDS011;61524;50.938;11.396;2022-07-23T11:45:39;19.08;;;14.25;;
73296;SDS011;61524;50.938;11.396;2022-07-23T11:48:05;21.98;;;16.52;;
73296;SDS011;61524;50.938;11.396;2022-07-23T11:50:33;19.33;;;15.35;;
73296;SDS011;61524;50.938;11.396;2022-07-23T11:55:25;21.73;;;15.18;;
73296;SDS011;61524;50.938;11.396;2022-07-23T11:57:53;19.50;;;14.13;;
73296;SDS011;61524;50.938;11.396;2022-07-23T12:00:21;19.23;;;16.27;;
73296;SDS011;61524;50.938;11.396;2022-07-23T12:02:49;20.52;;;15.88;;
73296;SDS011;61524;50.938;11.396;2022-07-23T12:05:18;20.38;;;15.65;;
73296;SDS011;61524;50.938;11.396;2022-07-23T12:07:45;19.35;;;16.05;;
73296;SDS011;61524;50.938;11.396;2022-07-23T12:10:23;20.02;;;15.02;;
73296;SDS011;61524;50.938;11.396;2022-07-23T12:12:55;20.90;;;16.38;;
73296;SDS011;61524;50.938;11.396;2022-07-23T12:15:23;20.63;;;15.95;;
73296;SDS011;61524;50.938;11.396;2022-07-23T12:17:55;16.70;;;14.07;;
73296;SDS011;61524;50.938;11.396;2022-07-23T12:20:22;20.90;;;14.52;;
73296;SDS011;61524;50.938;11.396;2022-07-23T12:22:51;17.73;;;14.10;;
73296;SDS011;61524;50.938;11.396;2022-07-23T12:25:21;18.88;;;14.13;;
73296;SDS011;61524;50.938;11.396;2022-07-23T12:30:29;17.10;;;12.10;;
73296;SDS011;61524;50.938;11.396;2022-07-23T12:32:57;14.73;;;12.27;;
73296;SDS011;61524;50.938;11.396;2022-07-23T12:35:28;15.20;;;11.45;;
73296;SDS011;61524;50.938;11.396;2022-07-23T12:37:59;13.80;;;11.27;;
73296;SDS011;61524;50.938;11.396;2022-07-23T12:43:02;15.30;;;12.18;;
73296;SDS011;61524;50.938;11.396;2022-07-23T12:45:46;17.08;;;14.18;;
73296;SDS011;61524;50.938;11.396;2022-07-23T12:48:23;18.00;;;14.60;;
73296;SDS011;61524;50.938;11.396;2022-07-23T12:53:18;19.05;;;14.05;;
73296;SDS011;61524;50.938;11.396;2022-07-23T12:55:47;16.33;;;10.60;;
73296;SDS011;61524;50.938;11.396;2022-07-23T12:58:18;16.92;;;12.55;;
73296;SDS011;61524;50.938;11.396;2022-07-23T13:00:50;11.40;;;9.10;;
73296;SDS011;61524;50.938;11.396;2022-07-23T13:03:33;12.63;;;9.95;;
73296;SDS011;61524;50.938;11.396;2022-07-23T13:08:28;11.52;;;8.20;;
73296;SDS011;61524;50.938;11.396;2022-07-23T13:10:55;10.98;;;8.70;;
73296;SDS011;61524;50.938;11.396;2022-07-23T13:13:22;14.27;;;8.77;;
73296;SDS011;61524;50.938;11.396;2022-07-23T13:15:49;9.93;;;8.45;;
73296;SDS011;61524;50.938;11.396;2022-07-23T13:18:15;9.63;;;7.75;;
73296;SDS011;61524;50.938;11.396;2022-07-23T13:20:42;9.68;;;7.65;;
73296;SDS011;61524;50.938;11.396;2022-07-23T13:23:08;9.10;;;7.68;;
73296;SDS011;61524;50.938;11.396;2022-07-23T13:25:34;9.77;;;7.22;;
73296;SDS011;61524;50.938;11.396;2022-07-23T13:28:00;11.18;;;7.15;;
73296;SDS011;61524;50.938;11.396;2022-07-23T13:32:51;10.52;;;7.05;;
73296;SDS011;61524;50.938;11.396;2022-07-23T13:35:16;9.75;;;7.32;;
73296;SDS011;61524;50.938;11.396;2022-07-23T13:37:42;7.63;;;6.15;;
73296;SDS011;61524;50.938;11.396;2022-07-23T13:40:07;10.02;;;6.68;;
73296;SDS011;61524;50.938;11.396;2022-07-23T13:42:33;7.68;;;5.97;;
73296;SDS011;61524;50.938;11.396;2022-07-23T13:44:59;7.63;;;5.82;;
73296;SDS011;61524;50.938;11.396;2022-07-23T13:47:24;7.82;;;6.00;;
73296;SDS011;61524;50.938;11.396;2022-07-23T13:49:50;10.70;;;6.07;;
73296;SDS011;61524;50.938;11.396;2022-07-23T13:52:15;8.45;;;5.82;;
73296;SDS011;61524;50.938;11.396;2022-07-23T13:54:41;8.15;;;6.30;;
73296;SDS011;61524;50.938;11.396;2022-07-23T13:57:06;7.10;;;5.05;;
73296;SDS011;61524;50.938;11.396;2022-07-23T13:59:34;7.47;;;5.82;;
73296;SDS011;61524;50.938;11.396;2022-07-23T14:02:00;8.00;;;5.95;;
73296;SDS011;61524;50.938;11.396;2022-07-23T14:04:26;8.70;;;6.32;;
73296;SDS011;61524;50.938;11.396;2022-07-23T14:06:52;8.65;;;5.90;;
73296;SDS011;61524;50.938;11.396;2022-07-23T14:09:17;11.05;;;6.32;;
73296;SDS011;61524;50.938;11.396;2022-07-23T14:11:43;8.82;;;5.50;;
73296;SDS011;61524;50.938;11.396;2022-07-23T14:14:08;11.05;;;8.55;;
73296;SDS011;61524;50.938;11.396;2022-07-23T14:16:34;9.73;;;5.72;;
73296;SDS011;61524;50.938;11.396;2022-07-23T14:19:00;8.82;;;5.82;;
73296;SDS011;61524;50.938;11.396;2022-07-23T14:21:25;7.78;;;5.57;;
73296;SDS011;61524;50.938;11.396;2022-07-23T14:23:51;8.43;;;6.95;;
73296;SDS011;61524;50.938;11.396;2022-07-23T14:26:16;7.28;;;5.65;;
73296;SDS011;61524;50.938;11.396;2022-07-23T14:28:42;7.13;;;5.65;;
73296;SDS011;61524;50.938;11.396;2022-07-23T14:31:07;7.78;;;5.43;;
73296;SDS011;61524;50.938;11.396;2022-07-23T14:33:32;7.82;;;5.32;;
73296;SDS011;61524;50.938;11.396;2022-07-23T14:35:58;6.55;;;5.20;;
73296;SDS011;61524;50.938;11.396;2022-07-23T14:38:24;8.38;;;5.10;;
73296;SDS011;61524;50.938;11.396;2022-07-23T14:40:49;9.43;;;4.88;;
73296;SDS011;61524;50.938;11.396;2022-07-23T14:43:15;8.15;;;5.13;;
73296;SDS011;61524;50.938;11.396;2022-07-23T14:45:40;6.80;;;4.50;;
73296;SDS011;61524;50.938;11.396;2022-07-23T14:48:06;7.38;;;4.80;;
73296;SDS011;61524;50.938;11.396;2022-07-23T14:52:57;8.00;;;5.35;;
73296;SDS011;61524;50.938;11.396;2022-07-23T14:55:23;5.95;;;4.50;;
73296;SDS011;61524;50.938;11.396;2022-07-23T14:57:48;7.60;;;4.80;;
73296;SDS011;61524;50.938;11.396;2022-07-23T15:00:14;8.43;;;5.35;;
73296;SDS011;61524;50.938;11.396;2022-07-23T15:02:39;6.32;;;4.70;;
73296;SDS011;61524;50.938;11.396;2022-07-23T15:05:05;7.97;;;5.10;;
73296;SDS011;61524;50.938;11.396;2022-07-23T15:07:31;6.47;;;4.10;;
73296;SDS011;61524;50.938;11.396;2022-07-23T15:09:57;6.45;;;4.80;;
73296;SDS011;61524;50.938;11.396;2022-07-23T15:12:23;7.15;;;4.40;;
73296;SDS011;61524;50.938;11.396;2022-07-23T15:14:48;8.43;;;5.40;;
73296;SDS011;61524;50.938;11.396;2022-07-23T15:17:14;8.20;;;5.07;;
73296;SDS011;61524;50.938;11.396;2022-07-23T15:19:39;6.35;;;4.68;;
73296;SDS011;61524;50.938;11.396;2022-07-23T15:22:04;7.47;;;5.30;;
73296;SDS011;61524;50.938;11.396;2022-07-23T15:24:30;5.75;;;4.40;;
73296;SDS011;61524;50.938;11.396;2022-07-23T15:26:56;7.80;;;4.75;;
73296;SDS011;61524;50.938;11.396;2022-07-23T15:29:22;5.55;;;3.95;;
73296;SDS011;61524;50.938;11.396;2022-07-23T15:31:47;8.05;;;5.15;;
73296;SDS011;61524;50.938;11.396;2022-07-23T15:36:39;7.93;;;4.53;;
73296;SDS011;61524;50.938;11.396;2022-07-23T15:39:04;6.38;;;4.07;;